Latest Coastal Weather Observations for Melbourne (Olympic Park)

IDV60701

Issued at 11:31 pm EDT Sunday 1 March 2015 (issued every 10 minutes, with the page automatically refreshed every 10 minutes)

About coastal observations | Map of coastal stations | Coastal observations for VIC | Marine services | Other Formats
Station Details ID: 086338 Name: MELBOURNE (OLYMPIC PARK) Lat: -37.83 Lon: 144.98 Height: 7.53 m
Data from the previous 72 hours. | See also: Recent months at Melbourne (Olympic Park)
Date/Time
EDT
Temp

°C
Wind Pressure Rain
since 9am
mm
Weather Cloud Vis
km
Sea
Height
m
Swell
Dir
 
Speed
knots
Gust
knots
hPa Trend Height
m
Period
s
Dir
01/11:30pm 16.6 SSE 4 7 1018.1 - 0.0 - - - - - - -
01/11:00pm 16.7 SSE 6 10 1018.3 - 0.0 - - - - - - -
01/10:30pm 16.6 SSE 7 11 1018.3 - 0.0 - - - - - - -
01/10:00pm 16.9 SSE 6 9 1018.2 - 0.0 - - - - - - -
01/09:30pm 17.0 SSE 6 10 1018.0 - 0.0 - - - - - - -
01/09:00pm 17.6 SSE 5 10 1017.6 - 0.0 - - - - - - -
01/08:30pm 17.5 S 6 9 1017.3 - 0.0 - - - - - - -
01/08:00pm 17.8 S 7 13 1017.1 - 0.0 - - - - - - -
01/07:30pm 18.0 SSW 6 11 1017.1 - 0.0 - - - - - - -
01/07:00pm 18.4 S 7 14 1017.0 - 0.0 - - - - - - -
01/06:30pm 19.0 SSW 6 13 1016.6 - 0.0 - - - - - - -
01/06:00pm 19.1 S 9 15 1016.6 - 0.0 - - - - - - -
01/05:30pm 19.6 S 7 17 1016.1 - 0.0 - - - - - - -
01/05:00pm 19.8 S 9 15 1015.9 - 0.0 - - - - - - -
01/04:30pm 20.4 S 8 16 1015.6 - 0.0 - - - - - - -
01/04:00pm 20.3 S 9 15 1015.4 - 0.0 - - - - - - -
01/03:30pm 19.7 S 9 17 1015.4 - 0.0 - - - - - - -
01/03:00pm 19.7 S 9 18 1015.3 - 0.0 - - - - - - -
01/02:30pm 20.0 S 8 16 1015.1 - 0.0 - - - - - - -
01/02:00pm 19.9 SSW 9 18 1014.9 - 0.0 - - - - - - -
01/01:30pm 20.2 SSW 9 14 1014.6 - 0.0 - - - - - - -
01/01:00pm 19.7 S 9 17 1014.6 - 0.0 - - - - - - -
01/12:30pm 19.8 SSW 9 16 1014.5 - 0.0 - - - - - - -
01/12:00pm 19.5 S 8 15 1014.3 - 0.0 - - - - - - -
01/11:30am 20.4 SSW 6 14 1013.8 - 0.0 - - - - - - -
01/11:00am 18.6 SSW 5 9 1013.3 - 0.0 - - - - - - -
01/10:30am 19.1 SSW 7 13 1013.0 - 0.0 - - - - - - -
01/10:00am 18.2 SW 5 9 1012.6 - 0.0 - - - - - - -
01/09:30am 17.2 WSW 4 9 1012.1 - 0.0 - - - - - - -
01/09:00am 15.9 WSW 5 9 1011.7 - 15.8 - - - - - - -
01/08:30am 15.6 W 5 9 1011.2 - 15.8 - - - - - - -
01/08:00am 15.3 W 5 11 1010.7 - 15.8 - - - - - - -
01/07:30am 15.3 W 5 8 1010.2 - 15.8 - - - - - - -
01/07:00am 15.6 WSW 5 8 1009.6 - 15.8 - - - - - - -
01/06:30am 15.8 W 6 9 1009.1 - 15.8 - - - - - - -
01/06:00am 16.0 W 3 7 1008.7 - 15.8 - - - - - - -
01/05:30am 16.2 W 6 9 1008.2 - 15.8 - - - - - - -
01/05:00am 17.3 SW 7 14 1007.7 - 15.8 - - - - - - -
01/04:30am 16.8 SSW 6 12 1007.1 - 15.8 - - - - - - -
01/04:00am 16.6 SSW 6 13 1006.8 - 15.8 - - - - - - -
01/03:30am 16.7 SW 8 16 1006.8 - 15.6 - - - - - - -
01/03:00am 17.0 SSW 8 15 1006.3 - 15.2 Rain - - - - - -
01/02:30am 17.5 SSW 6 13 1006.1 - 15.0 - - - - - - -
01/02:00am 18.1 SSW 4 9 1005.9 - 14.2 - - - - - - -
01/01:30am 18.6 SW 6 12 1005.8 - 14.0 - - - - - - -
01/01:00am 19.2 W 2 5 1005.3 - 13.4 - - - - - - -
01/12:30am 19.5 N 5 8 1005.7 - 13.2 - - - - - - -
01/12:00am 19.4 N 5 7 1005.1 - 13.2 Recent precip. - - - - - -
 
Date/Time
EDT
Temp

°C
Wind Pressure Rain
since 9am
mm
Weather Cloud Vis
km
Sea
Height
m
Swell
Dir
 
Speed
knots
Gust
knots
hPa Trend Height
m
Period
s
Dir
28/11:30pm 19.5 NNE 4 8 1005.5 - 12.4 - - - - - - -
28/11:00pm 19.7 E 2 5 1005.7 - 11.4 - - - - - - -
28/10:30pm 19.7 W 1 5 1007.0 - 8.4 - - - - - - -
28/10:00pm 19.7 WSW 3 8 1006.5 - 5.8 - - - - - - -
28/09:30pm 20.0 SSW 6 11 1005.5 - 2.8 - - - - - - -
28/09:00pm 20.3 WSW 9 18 1005.4 - 1.4 Rain - - - - - -
28/08:58pm 20.3 WSW 11 21 1005.4 - 1.2 - - - - - - -
28/08:30pm 23.5 WSW 11 26 1003.4 - 0.0 - - - - - - -
28/08:28pm 26.2 WSW 9 26 1002.6 - 0.0 - - - - - - -
28/08:23pm 29.8 WNW 3 12 1000.5 - 0.0 - - - - - - -
28/08:00pm 30.2 NE 5 10 998.1 - 0.0 - - - - - - -
28/07:30pm 30.8 N 6 8 998.5 - 0.0 - - - - - - -
28/07:00pm 31.5 NNE 8 11 999.0 - 0.0 - - - - - - -
28/06:30pm 32.1 N 8 16 999.5 - 0.0 - - - - - - -
28/06:00pm 32.1 N 11 19 1000.1 - 0.0 - - - - - - -
28/05:30pm 32.0 N 11 18 1000.6 - 0.0 - - - - - - -
28/05:00pm 31.2 N 8 12 1001.4 - 0.0 - - - - - - -
28/04:30pm 30.7 N 9 13 1001.7 - 0.0 - - - - - - -
28/04:00pm 29.7 N 8 13 1002.1 - 0.0 - - - - - - -
28/03:30pm 28.7 N 7 11 1002.4 - 0.0 - - - - - - -
28/03:00pm 28.4 N 10 14 1002.7 - 0.0 - - - - - - -
28/02:30pm 28.6 NE 5 8 1002.9 - 0.0 - - - - - - -
28/02:00pm 26.4 NE 7 11 1003.7 - 0.0 - - - - - - -
28/01:30pm 25.9 N 7 11 1004.4 - 0.0 - - - - - - -
28/01:00pm 25.4 N 9 15 1005.0 - 0.0 - - - - - - -
28/12:30pm 24.4 N 8 11 1005.7 - 0.0 - - - - - - -
28/12:00pm 23.8 NNE 5 9 1005.8 - 0.0 - - - - - - -
28/11:30am 23.6 NNE 6 11 1005.9 - 0.0 - - - - - - -
28/11:00am 23.4 NNW 7 12 1006.4 - 0.0 - - - - - - -
28/10:30am 21.7 NNE 7 11 1005.8 - 0.0 - - - - - - -
28/10:00am 20.7 N 3 8 1006.3 - 0.0 - - - - - - -
28/09:30am 20.1 NNE 4 7 1006.8 - 0.0 - - - - - - -
28/09:00am 19.0 NNE 5 8 1006.9 - 0.0 - - - - - - -
28/08:30am 19.2 NNE 5 8 1006.7 - 0.0 - - - - - - -
28/08:00am 18.8 NNE 6 9 1006.4 - 0.0 - - - - - - -
28/07:30am 18.4 NNE 7 11 1006.2 - 0.0 - - - - - - -
28/07:00am 18.5 NNE 5 6 1006.3 - 0.0 - - - - - - -
28/06:30am 18.6 NNE 1 5 1006.3 - 0.0 - - - - - - -
28/06:00am 18.5 NW 4 9 1006.8 - 0.0 - - - - - - -
28/05:30am 18.1 N 5 10 1006.4 - 0.0 - - - - - - -
28/05:00am 18.0 NNE 3 5 1006.0 - 0.0 - - - - - - -
28/04:30am 18.1 NNE 3 5 1006.7 - 0.0 - - - - - - -
28/04:00am 18.0 ENE 3 5 1007.5 - 0.0 - - - - - - -
28/03:30am 18.0 ESE 1 4 1008.2 - 0.0 - - - - - - -
28/03:00am 18.0 ESE 2 4 1008.5 - 0.0 - - - - - - -
28/02:30am 18.0 E 2 5 1008.9 - 0.0 - - - - - - -
28/02:00am 18.0 E 1 4 1009.5 - 0.0 - - - - - - -
28/01:30am 18.1 ESE 3 6 1009.8 - 0.0 - - - - - - -
28/01:00am 18.4 SSE 1 5 1009.9 - 0.0 - - - - - - -
28/12:30am 18.5 SSW 1 4 1010.5 - 0.0 - - - - - - -
28/12:00am 18.7 SSE 1 5 1010.4 - 0.0 - - - - - - -
 
Date/Time
EDT
Temp

°C
Wind Pressure Rain
since 9am
mm
Weather Cloud Vis
km
Sea
Height
m
Swell
Dir
 
Speed
knots
Gust
knots
hPa Trend Height
m
Period
s
Dir
27/11:30pm 18.7 S 2 6 1010.7 - 0.0 - - - - - - -
27/11:00pm 18.8 SSW 2 6 1011.1 - 0.0 - - - - - - -
27/10:30pm 18.9 SSE 5 8 1010.9 - 0.0 - - - - - - -
27/10:00pm 19.0 S 2 6 1010.9 - 0.0 - - - - - - -
27/09:30pm 19.1 S 3 6 1010.7 - 0.0 - - - - - - -
27/09:00pm 19.5 SSE 6 11 1010.4 - 0.0 - - - - - - -
27/08:30pm 20.0 S 7 12 1010.0 - 0.0 - - - - - - -
27/08:00pm 20.8 S 5 8 1009.4 - 0.0 - - - - - - -
27/07:30pm 21.8 SSE 5 7 1009.0 - 0.0 - - - - - - -
27/07:00pm 22.3 SE 7 10 1008.6 - 0.0 - - - - - - -
27/06:30pm 22.8 SSE 6 9 1008.5 - 0.0 - - - - - - -
27/06:00pm 22.7 S 5 8 1008.9 - 0.0 - - - - - - -
27/05:30pm 23.0 SSE 6 9 1008.8 - 0.0 - - - - - - -
27/05:00pm 23.2 S 5 9 1008.9 - 0.0 - - - - - - -
27/04:30pm 23.6 S 5 9 1009.1 - 0.0 - - - - - - -
27/04:00pm 23.4 SSW 7 11 1009.1 - 0.0 - - - - - - -
27/03:30pm 23.8 SSW 6 11 1009.4 - 0.0 - - - - - - -
27/03:00pm 23.4 SSW 7 11 1009.7 - 0.0 - - - - - - -
27/02:30pm 23.2 SSW 6 10 1009.8 - 0.0 - - - - - - -
27/02:00pm 23.0 SSW 7 10 1010.2 - 0.0 - - - - - - -
27/01:30pm 22.9 SSW 5 9 1010.1 - 0.0 - - - - - - -
27/01:00pm 22.5 SW 4 7 1010.6 - 0.0 - - - - - - -
27/12:30pm 22.0 SSW 6 10 1011.1 - 0.0 - - - - - - -
27/12:00pm 21.7 S 5 8 1010.9 - 0.0 - - - - - - -
27/11:30am 21.2 SW 5 11 1011.5 - 0.0 - - - - - - -
27/11:00am 20.8 SSW 4 7 1011.7 - 0.0 - - - - - - -
27/10:30am 20.1 SSW 2 4 1011.5 - 0.0 - - - - - - -
27/10:00am 19.6 CALM 0 4 1011.1 - 0.0 - - - - - - -
27/09:30am 18.9 NW 1 3 1011.2 - 0.0 - - - - - - -
27/09:00am 18.3 NNE 2 4 1011.1 - 0.0 - - - - - - -
27/08:30am 17.5 NNE 4 5 1010.9 - 0.0 - - - - - - -
27/08:00am 16.3 CALM 0 0 1011.0 - 0.0 - - - - - - -
27/07:30am 15.1 SSE 1 4 1010.6 - 0.0 - - - - - - -
27/07:00am 15.1 NE 3 5 1010.4 - 0.0 - - - - - - -
27/06:30am 15.0 N 2 4 1010.0 - 0.0 - - - - - - -
27/06:00am 15.2 CALM 0 3 1009.8 - 0.0 - - - - - - -
27/05:30am 14.9 CALM 0 2 1010.0 - 0.0 - - - - - - -
27/05:00am 15.1 CALM 0 0 1009.9 - 0.0 - - - - - - -
27/04:30am 15.3 CALM 0 0 1010.0 - 0.0 - - - - - - -
27/04:00am 15.5 CALM 0 0 1010.1 - 0.0 - - - - - - -
27/03:30am 15.7 CALM 0 0 1010.9 - 0.0 - - - - - - -
27/03:00am 15.9 CALM 0 0 1010.9 - 0.0 - - - - - - -
27/02:30am 16.3 CALM 0 0 1010.7 - 0.0 - - - - - - -
27/02:00am 16.7 CALM 0 1 1010.7 - 0.0 - - - - - - -
27/01:30am 17.1 SSE 1 3 1011.3 - 0.0 - - - - - - -
27/01:00am 17.5 S 1 5 1011.4 - 0.0 - - - - - - -
27/12:30am 18.0 S 1 5 1011.7 - 0.0 - - - - - - -
27/12:00am 18.6 SSE 4 7 1011.8 - 0.0 - - - - - - -

Other Formats:

Comma delimited format used in spreadsheet applications
http://www.bom.gov.au/fwo/IDV60701/IDV60701.95936.axf

JavaScript Object Notation format (JSON) in row-major order
http://www.bom.gov.au/fwo/IDV60701/IDV60701.95936.json